sensor_id;sensor_type;location;lat;lon;timestamp;P1;durP1;ratioP1;P2;durP2;ratioP2
72156;SDS011;60035;52.122;5.406;2022-10-17T00:00:32;11.98;;;6.38;;
72156;SDS011;60035;52.122;5.406;2022-10-17T00:02:59;11.95;;;6.88;;
72156;SDS011;60035;52.122;5.406;2022-10-17T00:05:25;11.23;;;6.32;;
72156;SDS011;60035;52.122;5.406;2022-10-17T00:07:52;11.95;;;6.25;;
72156;SDS011;60035;52.122;5.406;2022-10-17T00:10:20;13.52;;;6.60;;
72156;SDS011;60035;52.122;5.406;2022-10-17T00:12:47;10.98;;;5.30;;
72156;SDS011;60035;52.122;5.406;2022-10-17T00:15:14;11.07;;;6.05;;
72156;SDS011;60035;52.122;5.406;2022-10-17T00:17:42;12.27;;;6.60;;
72156;SDS011;60035;52.122;5.406;2022-10-17T00:20:09;12.50;;;6.80;;
72156;SDS011;60035;52.122;5.406;2022-10-17T00:22:36;11.38;;;5.72;;
72156;SDS011;60035;52.122;5.406;2022-10-17T00:25:03;12.65;;;6.72;;
72156;SDS011;60035;52.122;5.406;2022-10-17T00:27:29;15.50;;;6.70;;
72156;SDS011;60035;52.122;5.406;2022-10-17T00:29:59;13.90;;;6.78;;
72156;SDS011;60035;52.122;5.406;2022-10-17T00:32:25;14.93;;;7.03;;
72156;SDS011;60035;52.122;5.406;2022-10-17T00:34:52;14.80;;;7.30;;
72156;SDS011;60035;52.122;5.406;2022-10-17T00:37:18;14.32;;;7.43;;
72156;SDS011;60035;52.122;5.406;2022-10-17T00:39:45;14.43;;;6.22;;
72156;SDS011;60035;52.122;5.406;2022-10-17T00:42:11;12.55;;;6.63;;
72156;SDS011;60035;52.122;5.406;2022-10-17T00:47:05;13.77;;;7.80;;
72156;SDS011;60035;52.122;5.406;2022-10-17T00:49:37;12.10;;;7.43;;
72156;SDS011;60035;52.122;5.406;2022-10-17T00:52:05;13.10;;;7.28;;
72156;SDS011;60035;52.122;5.406;2022-10-17T00:54:47;14.77;;;7.20;;
72156;SDS011;60035;52.122;5.406;2022-10-17T00:57:16;14.80;;;7.13;;
72156;SDS011;60035;52.122;5.406;2022-10-17T00:59:44;13.32;;;7.10;;
72156;SDS011;60035;52.122;5.406;2022-10-17T01:02:16;12.40;;;6.07;;
72156;SDS011;60035;52.122;5.406;2022-10-17T01:04:45;14.88;;;7.13;;
72156;SDS011;60035;52.122;5.406;2022-10-17T01:07:13;13.10;;;7.32;;
72156;SDS011;60035;52.122;5.406;2022-10-17T01:09:40;15.23;;;7.00;;
72156;SDS011;60035;52.122;5.406;2022-10-17T01:15:08;12.57;;;6.68;;
72156;SDS011;60035;52.122;5.406;2022-10-17T01:31:46;15.57;;;7.15;;
72156;SDS011;60035;52.122;5.406;2022-10-17T01:34:21;12.60;;;6.63;;
72156;SDS011;60035;52.122;5.406;2022-10-17T01:40:03;14.50;;;7.40;;
72156;SDS011;60035;52.122;5.406;2022-10-17T01:42:37;12.68;;;6.32;;
72156;SDS011;60035;52.122;5.406;2022-10-17T01:45:30;14.18;;;7.90;;
72156;SDS011;60035;52.122;5.406;2022-10-17T01:48:04;14.07;;;7.00;;
72156;SDS011;60035;52.122;5.406;2022-10-17T01:50:43;14.45;;;7.22;;
72156;SDS011;60035;52.122;5.406;2022-10-17T01:53:18;13.27;;;7.97;;
72156;SDS011;60035;52.122;5.406;2022-10-17T01:55:50;12.63;;;7.03;;
72156;SDS011;60035;52.122;5.406;2022-10-17T01:58:21;13.93;;;7.65;;
72156;SDS011;60035;52.122;5.406;2022-10-17T02:00:53;13.07;;;7.63;;
72156;SDS011;60035;52.122;5.406;2022-10-17T02:03:23;12.85;;;6.22;;
72156;SDS011;60035;52.122;5.406;2022-10-17T02:05:53;16.25;;;7.30;;
72156;SDS011;60035;52.122;5.406;2022-10-17T02:08:39;13.75;;;7.00;;
72156;SDS011;60035;52.122;5.406;2022-10-17T02:11:10;14.68;;;7.72;;
72156;SDS011;60035;52.122;5.406;2022-10-17T02:16:53;14.50;;;7.70;;
72156;SDS011;60035;52.122;5.406;2022-10-17T02:22:39;13.63;;;7.32;;
72156;SDS011;60035;52.122;5.406;2022-10-17T02:27:52;14.73;;;7.35;;
72156;SDS011;60035;52.122;5.406;2022-10-17T02:30:34;13.40;;;7.85;;
72156;SDS011;60035;52.122;5.406;2022-10-17T02:33:06;13.45;;;7.75;;
72156;SDS011;60035;52.122;5.406;2022-10-17T02:35:39;13.48;;;7.68;;
72156;SDS011;60035;52.122;5.406;2022-10-17T02:38:09;15.32;;;7.65;;
72156;SDS011;60035;52.122;5.406;2022-10-17T02:40:37;15.90;;;7.40;;
72156;SDS011;60035;52.122;5.406;2022-10-17T02:43:05;15.63;;;7.30;;
72156;SDS011;60035;52.122;5.406;2022-10-17T02:45:32;15.25;;;8.55;;
72156;SDS011;60035;52.122;5.406;2022-10-17T02:48:03;15.63;;;8.52;;
72156;SDS011;60035;52.122;5.406;2022-10-17T02:53:24;14.82;;;7.85;;
72156;SDS011;60035;52.122;5.406;2022-10-17T02:55:56;16.33;;;8.15;;
72156;SDS011;60035;52.122;5.406;2022-10-17T02:58:27;15.82;;;8.15;;
72156;SDS011;60035;52.122;5.406;2022-10-17T03:00:58;16.50;;;7.95;;
72156;SDS011;60035;52.122;5.406;2022-10-17T03:03:30;14.65;;;7.93;;
72156;SDS011;60035;52.122;5.406;2022-10-17T03:05:57;15.90;;;8.50;;
72156;SDS011;60035;52.122;5.406;2022-10-17T03:08:23;17.60;;;7.75;;
72156;SDS011;60035;52.122;5.406;2022-10-17T03:10:50;15.27;;;7.35;;
72156;SDS011;60035;52.122;5.406;2022-10-17T03:13:16;16.35;;;6.85;;
72156;SDS011;60035;52.122;5.406;2022-10-17T03:15:43;17.13;;;8.02;;
72156;SDS011;60035;52.122;5.406;2022-10-17T03:18:10;19.33;;;7.68;;
72156;SDS011;60035;52.122;5.406;2022-10-17T03:20:36;15.55;;;8.13;;
72156;SDS011;60035;52.122;5.406;2022-10-17T03:23:03;19.33;;;8.10;;
72156;SDS011;60035;52.122;5.406;2022-10-17T03:25:29;14.85;;;8.23;;
72156;SDS011;60035;52.122;5.406;2022-10-17T03:27:59;18.35;;;7.00;;
72156;SDS011;60035;52.122;5.406;2022-10-17T03:30:27;16.10;;;8.20;;
72156;SDS011;60035;52.122;5.406;2022-10-17T03:32:54;17.02;;;8.00;;
72156;SDS011;60035;52.122;5.406;2022-10-17T03:35:22;20.58;;;8.65;;
72156;SDS011;60035;52.122;5.406;2022-10-17T03:37:48;16.58;;;7.63;;
72156;SDS011;60035;52.122;5.406;2022-10-17T03:40:15;17.25;;;7.63;;
72156;SDS011;60035;52.122;5.406;2022-10-17T03:42:41;15.07;;;6.57;;
72156;SDS011;60035;52.122;5.406;2022-10-17T03:45:08;13.68;;;6.63;;
72156;SDS011;60035;52.122;5.406;2022-10-17T03:47:35;15.80;;;8.18;;
72156;SDS011;60035;52.122;5.406;2022-10-17T03:50:01;17.15;;;8.02;;
72156;SDS011;60035;52.122;5.406;2022-10-17T03:52:28;14.73;;;8.40;;
72156;SDS011;60035;52.122;5.406;2022-10-17T03:54:54;16.90;;;8.27;;
72156;SDS011;60035;52.122;5.406;2022-10-17T03:57:20;17.83;;;8.30;;
72156;SDS011;60035;52.122;5.406;2022-10-17T03:59:48;14.10;;;7.88;;
72156;SDS011;60035;52.122;5.406;2022-10-17T04:02:15;15.10;;;8.43;;
72156;SDS011;60035;52.122;5.406;2022-10-17T04:04:41;18.50;;;9.18;;
72156;SDS011;60035;52.122;5.406;2022-10-17T04:07:08;17.27;;;9.15;;
72156;SDS011;60035;52.122;5.406;2022-10-17T04:09:34;15.52;;;8.00;;
72156;SDS011;60035;52.122;5.406;2022-10-17T04:12:01;17.85;;;8.20;;
72156;SDS011;60035;52.122;5.406;2022-10-17T04:14:27;16.55;;;8.27;;
72156;SDS011;60035;52.122;5.406;2022-10-17T04:16:53;15.95;;;8.43;;
72156;SDS011;60035;52.122;5.406;2022-10-17T04:19:20;16.85;;;8.05;;
72156;SDS011;60035;52.122;5.406;2022-10-17T04:21:46;15.55;;;8.40;;
72156;SDS011;60035;52.122;5.406;2022-10-17T04:24:13;16.77;;;7.13;;
72156;SDS011;60035;52.122;5.406;2022-10-17T04:26:39;15.82;;;8.52;;
72156;SDS011;60035;52.122;5.406;2022-10-17T04:29:06;17.38;;;8.57;;
72156;SDS011;60035;52.122;5.406;2022-10-17T04:31:32;15.48;;;7.30;;
72156;SDS011;60035;52.122;5.406;2022-10-17T04:33:58;15.43;;;8.18;;
72156;SDS011;60035;52.122;5.406;2022-10-17T04:36:25;16.08;;;8.40;;
72156;SDS011;60035;52.122;5.406;2022-10-17T04:38:51;15.02;;;6.97;;
72156;SDS011;60035;52.122;5.406;2022-10-17T04:41:18;23.48;;;9.00;;
72156;SDS011;60035;52.122;5.406;2022-10-17T04:43:44;14.85;;;7.32;;
72156;SDS011;60035;52.122;5.406;2022-10-17T04:46:16;14.35;;;7.05;;
72156;SDS011;60035;52.122;5.406;2022-10-17T04:48:42;15.52;;;8.10;;
72156;SDS011;60035;52.122;5.406;2022-10-17T04:51:10;16.55;;;8.18;;
72156;SDS011;60035;52.122;5.406;2022-10-17T04:53:39;16.85;;;7.35;;
72156;SDS011;60035;52.122;5.406;2022-10-17T04:56:11;14.40;;;7.97;;
72156;SDS011;60035;52.122;5.406;2022-10-17T04:58:41;16.05;;;8.57;;
72156;SDS011;60035;52.122;5.406;2022-10-17T05:01:09;15.55;;;8.45;;
72156;SDS011;60035;52.122;5.406;2022-10-17T05:03:37;18.98;;;8.63;;
72156;SDS011;60035;52.122;5.406;2022-10-17T05:06:07;16.00;;;8.23;;
72156;SDS011;60035;52.122;5.406;2022-10-17T05:08:36;15.77;;;7.85;;
72156;SDS011;60035;52.122;5.406;2022-10-17T05:11:02;14.65;;;7.63;;
72156;SDS011;60035;52.122;5.406;2022-10-17T05:13:31;14.10;;;7.00;;
72156;SDS011;60035;52.122;5.406;2022-10-17T05:15:58;15.25;;;8.05;;
72156;SDS011;60035;52.122;5.406;2022-10-17T05:18:26;14.75;;;7.45;;
72156;SDS011;60035;52.122;5.406;2022-10-17T05:20:53;16.77;;;7.78;;
72156;SDS011;60035;52.122;5.406;2022-10-17T05:23:20;14.88;;;7.35;;
72156;SDS011;60035;52.122;5.406;2022-10-17T05:25:46;15.60;;;8.27;;
72156;SDS011;60035;52.122;5.406;2022-10-17T05:28:13;19.30;;;8.48;;
72156;SDS011;60035;52.122;5.406;2022-10-17T05:30:40;16.75;;;7.80;;
72156;SDS011;60035;52.122;5.406;2022-10-17T05:33:06;15.93;;;8.20;;
72156;SDS011;60035;52.122;5.406;2022-10-17T05:35:32;14.27;;;7.03;;
72156;SDS011;60035;52.122;5.406;2022-10-17T05:37:59;15.70;;;7.40;;
72156;SDS011;60035;52.122;5.406;2022-10-17T05:40:26;16.88;;;7.93;;
72156;SDS011;60035;52.122;5.406;2022-10-17T05:42:52;16.45;;;8.00;;
72156;SDS011;60035;52.122;5.406;2022-10-17T05:45:19;17.38;;;8.45;;
72156;SDS011;60035;52.122;5.406;2022-10-17T05:47:46;14.82;;;7.47;;
72156;SDS011;60035;52.122;5.406;2022-10-17T05:50:12;15.77;;;7.88;;
72156;SDS011;60035;52.122;5.406;2022-10-17T05:52:39;15.05;;;7.15;;
72156;SDS011;60035;52.122;5.406;2022-10-17T05:55:10;17.27;;;8.18;;
72156;SDS011;60035;52.122;5.406;2022-10-17T05:57:36;14.93;;;8.00;;
72156;SDS011;60035;52.122;5.406;2022-10-17T06:00:04;17.08;;;8.30;;
72156;SDS011;60035;52.122;5.406;2022-10-17T06:02:31;16.70;;;7.57;;
72156;SDS011;60035;52.122;5.406;2022-10-17T06:04:58;16.45;;;7.65;;
72156;SDS011;60035;52.122;5.406;2022-10-17T06:07:24;15.45;;;7.78;;
72156;SDS011;60035;52.122;5.406;2022-10-17T06:09:51;15.68;;;7.63;;
72156;SDS011;60035;52.122;5.406;2022-10-17T06:12:17;18.45;;;7.60;;
72156;SDS011;60035;52.122;5.406;2022-10-17T06:14:43;14.10;;;7.32;;
72156;SDS011;60035;52.122;5.406;2022-10-17T06:17:10;15.00;;;7.30;;
72156;SDS011;60035;52.122;5.406;2022-10-17T06:19:41;15.75;;;8.40;;
72156;SDS011;60035;52.122;5.406;2022-10-17T06:22:09;15.27;;;7.22;;
72156;SDS011;60035;52.122;5.406;2022-10-17T06:24:35;15.13;;;8.15;;
72156;SDS011;60035;52.122;5.406;2022-10-17T06:27:02;14.02;;;8.18;;
72156;SDS011;60035;52.122;5.406;2022-10-17T06:29:34;15.88;;;7.95;;
72156;SDS011;60035;52.122;5.406;2022-10-17T06:32:00;15.68;;;7.28;;
72156;SDS011;60035;52.122;5.406;2022-10-17T06:34:27;14.15;;;7.88;;
72156;SDS011;60035;52.122;5.406;2022-10-17T06:36:53;14.55;;;7.70;;
72156;SDS011;60035;52.122;5.406;2022-10-17T06:39:20;16.70;;;8.60;;
72156;SDS011;60035;52.122;5.406;2022-10-17T06:41:46;17.00;;;8.23;;
72156;SDS011;60035;52.122;5.406;2022-10-17T06:44:13;15.13;;;7.50;;
72156;SDS011;60035;52.122;5.406;2022-10-17T06:46:39;16.23;;;8.15;;
72156;SDS011;60035;52.122;5.406;2022-10-17T06:49:08;16.05;;;7.65;;
72156;SDS011;60035;52.122;5.406;2022-10-17T06:51:35;14.30;;;7.57;;
72156;SDS011;60035;52.122;5.406;2022-10-17T06:54:02;16.35;;;8.27;;
72156;SDS011;60035;52.122;5.406;2022-10-17T06:56:29;16.48;;;8.60;;
72156;SDS011;60035;52.122;5.406;2022-10-17T06:58:56;17.05;;;8.13;;
72156;SDS011;60035;52.122;5.406;2022-10-17T07:01:22;13.82;;;8.07;;
72156;SDS011;60035;52.122;5.406;2022-10-17T07:03:48;18.20;;;7.70;;
72156;SDS011;60035;52.122;5.406;2022-10-17T07:06:15;16.08;;;7.93;;
72156;SDS011;60035;52.122;5.406;2022-10-17T07:08:43;15.13;;;8.18;;
72156;SDS011;60035;52.122;5.406;2022-10-17T07:11:15;15.50;;;7.85;;
72156;SDS011;60035;52.122;5.406;2022-10-17T07:13:43;16.13;;;6.63;;
72156;SDS011;60035;52.122;5.406;2022-10-17T07:16:10;13.63;;;7.53;;
72156;SDS011;60035;52.122;5.406;2022-10-17T07:18:38;15.48;;;7.60;;
72156;SDS011;60035;52.122;5.406;2022-10-17T07:21:05;15.73;;;8.32;;
72156;SDS011;60035;52.122;5.406;2022-10-17T07:23:33;13.80;;;7.40;;
72156;SDS011;60035;52.122;5.406;2022-10-17T07:26:02;14.63;;;7.57;;
72156;SDS011;60035;52.122;5.406;2022-10-17T07:28:34;16.08;;;8.32;;
72156;SDS011;60035;52.122;5.406;2022-10-17T07:31:04;14.25;;;7.68;;
72156;SDS011;60035;52.122;5.406;2022-10-17T07:33:32;14.27;;;7.75;;
72156;SDS011;60035;52.122;5.406;2022-10-17T07:35:59;14.98;;;7.57;;
72156;SDS011;60035;52.122;5.406;2022-10-17T07:38:27;16.48;;;6.85;;
72156;SDS011;60035;52.122;5.406;2022-10-17T07:40:54;14.45;;;7.97;;
72156;SDS011;60035;52.122;5.406;2022-10-17T07:43:22;14.77;;;7.05;;
72156;SDS011;60035;52.122;5.406;2022-10-17T07:45:49;14.85;;;7.60;;
72156;SDS011;60035;52.122;5.406;2022-10-17T07:48:17;17.77;;;8.13;;
72156;SDS011;60035;52.122;5.406;2022-10-17T07:50:44;12.73;;;6.68;;
72156;SDS011;60035;52.122;5.406;2022-10-17T07:53:10;15.75;;;6.43;;
72156;SDS011;60035;52.122;5.406;2022-10-17T07:55:37;12.50;;;7.00;;
72156;SDS011;60035;52.122;5.406;2022-10-17T07:58:06;13.25;;;6.55;;
72156;SDS011;60035;52.122;5.406;2022-10-17T08:00:34;13.63;;;7.25;;
72156;SDS011;60035;52.122;5.406;2022-10-17T08:03:02;14.27;;;6.40;;
72156;SDS011;60035;52.122;5.406;2022-10-17T08:05:29;13.68;;;7.20;;
72156;SDS011;60035;52.122;5.406;2022-10-17T08:07:56;16.50;;;7.32;;
72156;SDS011;60035;52.122;5.406;2022-10-17T08:10:23;13.45;;;7.28;;
72156;SDS011;60035;52.122;5.406;2022-10-17T08:12:55;16.27;;;7.07;;
72156;SDS011;60035;52.122;5.406;2022-10-17T08:15:23;16.95;;;7.80;;
72156;SDS011;60035;52.122;5.406;2022-10-17T08:17:57;16.10;;;7.45;;
72156;SDS011;60035;52.122;5.406;2022-10-17T08:20:24;14.63;;;6.57;;
72156;SDS011;60035;52.122;5.406;2022-10-17T08:22:51;12.15;;;6.25;;
72156;SDS011;60035;52.122;5.406;2022-10-17T08:25:18;13.05;;;6.82;;
72156;SDS011;60035;52.122;5.406;2022-10-17T08:27:45;13.73;;;7.43;;
72156;SDS011;60035;52.122;5.406;2022-10-17T08:30:12;15.63;;;7.18;;
72156;SDS011;60035;52.122;5.406;2022-10-17T08:32:38;11.95;;;5.95;;
72156;SDS011;60035;52.122;5.406;2022-10-17T08:35:05;14.10;;;6.78;;
72156;SDS011;60035;52.122;5.406;2022-10-17T08:37:32;17.67;;;7.57;;
72156;SDS011;60035;52.122;5.406;2022-10-17T08:39:59;13.60;;;7.00;;
72156;SDS011;60035;52.122;5.406;2022-10-17T08:47:34;13.27;;;6.90;;
72156;SDS011;60035;52.122;5.406;2022-10-17T08:50:05;13.57;;;7.68;;
72156;SDS011;60035;52.122;5.406;2022-10-17T08:52:40;14.70;;;6.38;;
72156;SDS011;60035;52.122;5.406;2022-10-17T08:55:30;13.25;;;6.60;;
72156;SDS011;60035;52.122;5.406;2022-10-17T08:58:13;14.93;;;7.00;;
72156;SDS011;60035;52.122;5.406;2022-10-17T09:00:58;15.90;;;6.90;;
72156;SDS011;60035;52.122;5.406;2022-10-17T09:03:50;13.27;;;7.55;;
72156;SDS011;60035;52.122;5.406;2022-10-17T09:06:43;16.27;;;7.47;;
72156;SDS011;60035;52.122;5.406;2022-10-17T09:12:02;15.32;;;6.95;;
72156;SDS011;60035;52.122;5.406;2022-10-17T09:20:07;14.60;;;6.88;;
72156;SDS011;60035;52.122;5.406;2022-10-17T09:22:39;13.23;;;7.10;;
72156;SDS011;60035;52.122;5.406;2022-10-17T09:25:11;14.20;;;7.18;;
72156;SDS011;60035;52.122;5.406;2022-10-17T09:27:41;13.77;;;7.95;;
72156;SDS011;60035;52.122;5.406;2022-10-17T09:33:14;17.58;;;9.07;;
72156;SDS011;60035;52.122;5.406;2022-10-17T09:36:04;14.07;;;8.10;;
72156;SDS011;60035;52.122;5.406;2022-10-17T09:38:40;15.73;;;7.47;;
72156;SDS011;60035;52.122;5.406;2022-10-17T09:41:14;13.95;;;7.32;;
72156;SDS011;60035;52.122;5.406;2022-10-17T09:44:28;14.40;;;7.57;;
72156;SDS011;60035;52.122;5.406;2022-10-17T09:49:33;14.48;;;6.78;;
72156;SDS011;60035;52.122;5.406;2022-10-17T09:52:02;13.93;;;7.03;;
72156;SDS011;60035;52.122;5.406;2022-10-17T09:57:13;16.35;;;8.02;;
72156;SDS011;60035;52.122;5.406;2022-10-17T10:00:01;13.27;;;7.38;;
72156;SDS011;60035;52.122;5.406;2022-10-17T10:02:30;14.70;;;7.30;;
72156;SDS011;60035;52.122;5.406;2022-10-17T10:07:41;12.93;;;6.47;;
72156;SDS011;60035;52.122;5.406;2022-10-17T10:10:29;14.32;;;7.78;;
72156;SDS011;60035;52.122;5.406;2022-10-17T10:13:17;16.10;;;8.57;;
72156;SDS011;60035;52.122;5.406;2022-10-17T10:15:48;13.55;;;7.75;;
72156;SDS011;60035;52.122;5.406;2022-10-17T10:23:32;13.48;;;7.13;;
72156;SDS011;60035;52.122;5.406;2022-10-17T10:26:02;11.80;;;6.03;;
72156;SDS011;60035;52.122;5.406;2022-10-17T10:28:32;13.82;;;6.82;;
72156;SDS011;60035;52.122;5.406;2022-10-17T10:31:04;14.25;;;7.50;;
72156;SDS011;60035;52.122;5.406;2022-10-17T10:33:33;12.73;;;6.50;;
72156;SDS011;60035;52.122;5.406;2022-10-17T10:36:07;12.43;;;7.03;;
72156;SDS011;60035;52.122;5.406;2022-10-17T10:38:34;13.20;;;6.68;;
72156;SDS011;60035;52.122;5.406;2022-10-17T10:41:06;13.40;;;7.03;;
72156;SDS011;60035;52.122;5.406;2022-10-17T10:43:37;13.50;;;7.00;;
72156;SDS011;60035;52.122;5.406;2022-10-17T10:46:17;13.88;;;6.60;;
72156;SDS011;60035;52.122;5.406;2022-10-17T10:48:50;14.13;;;7.88;;
72156;SDS011;60035;52.122;5.406;2022-10-17T10:51:23;10.93;;;5.95;;
72156;SDS011;60035;52.122;5.406;2022-10-17T11:01:58;11.50;;;6.22;;
72156;SDS011;60035;52.122;5.406;2022-10-17T11:04:36;10.68;;;6.28;;
72156;SDS011;60035;52.122;5.406;2022-10-17T11:12:29;12.70;;;5.60;;
72156;SDS011;60035;52.122;5.406;2022-10-17T11:15:00;10.48;;;5.80;;
72156;SDS011;60035;52.122;5.406;2022-10-17T11:17:30;9.77;;;6.20;;
72156;SDS011;60035;52.122;5.406;2022-10-17T11:22:39;10.48;;;5.78;;
72156;SDS011;60035;52.122;5.406;2022-10-17T11:27:37;10.05;;;5.95;;
72156;SDS011;60035;52.122;5.406;2022-10-17T11:30:04;10.77;;;5.65;;
72156;SDS011;60035;52.122;5.406;2022-10-17T11:32:45;9.82;;;5.25;;
72156;SDS011;60035;52.122;5.406;2022-10-17T11:35:17;9.20;;;5.30;;
72156;SDS011;60035;52.122;5.406;2022-10-17T11:40:55;11.52;;;5.97;;
72156;SDS011;60035;52.122;5.406;2022-10-17T11:43:26;9.88;;;5.57;;
72156;SDS011;60035;52.122;5.406;2022-10-17T11:46:04;11.20;;;6.18;;
72156;SDS011;60035;52.122;5.406;2022-10-17T11:48:57;10.48;;;5.30;;
72156;SDS011;60035;52.122;5.406;2022-10-17T11:51:51;13.68;;;6.07;;
72156;SDS011;60035;52.122;5.406;2022-10-17T11:54:37;10.45;;;6.00;;
72156;SDS011;60035;52.122;5.406;2022-10-17T12:02:46;13.18;;;5.97;;
72156;SDS011;60035;52.122;5.406;2022-10-17T12:05:18;11.70;;;6.38;;
72156;SDS011;60035;52.122;5.406;2022-10-17T12:07:50;10.43;;;5.90;;
72156;SDS011;60035;52.122;5.406;2022-10-17T12:13:20;10.52;;;5.68;;
72156;SDS011;60035;52.122;5.406;2022-10-17T12:15:56;10.00;;;4.80;;
72156;SDS011;60035;52.122;5.406;2022-10-17T12:18:43;10.15;;;6.45;;
72156;SDS011;60035;52.122;5.406;2022-10-17T12:21:10;12.55;;;6.15;;
72156;SDS011;60035;52.122;5.406;2022-10-17T12:23:36;9.32;;;5.63;;
72156;SDS011;60035;52.122;5.406;2022-10-17T12:26:07;10.02;;;5.00;;
72156;SDS011;60035;52.122;5.406;2022-10-17T12:38:45;11.18;;;6.00;;
72156;SDS011;60035;52.122;5.406;2022-10-17T12:41:51;10.75;;;6.55;;
72156;SDS011;60035;52.122;5.406;2022-10-17T13:03:41;12.85;;;6.82;;
72156;SDS011;60035;52.122;5.406;2022-10-17T13:06:13;12.45;;;6.78;;
72156;SDS011;60035;52.122;5.406;2022-10-17T13:08:47;12.20;;;6.95;;
72156;SDS011;60035;52.122;5.406;2022-10-17T13:11:24;12.98;;;7.15;;
72156;SDS011;60035;52.122;5.406;2022-10-17T13:13:54;11.23;;;6.80;;
72156;SDS011;60035;52.122;5.406;2022-10-17T13:18:58;12.20;;;7.18;;
72156;SDS011;60035;52.122;5.406;2022-10-17T13:21:26;13.02;;;7.55;;
72156;SDS011;60035;52.122;5.406;2022-10-17T13:23:52;13.43;;;6.63;;
72156;SDS011;60035;52.122;5.406;2022-10-17T13:26:23;12.35;;;5.93;;
72156;SDS011;60035;52.122;5.406;2022-10-17T13:29:05;12.05;;;6.15;;
72156;SDS011;60035;52.122;5.406;2022-10-17T13:31:40;13.05;;;6.95;;
72156;SDS011;60035;52.122;5.406;2022-10-17T13:34:19;12.27;;;6.18;;
72156;SDS011;60035;52.122;5.406;2022-10-17T13:37:11;11.38;;;6.70;;
72156;SDS011;60035;52.122;5.406;2022-10-17T13:39:42;12.02;;;6.45;;
72156;SDS011;60035;52.122;5.406;2022-10-17T13:42:22;10.95;;;5.60;;
72156;SDS011;60035;52.122;5.406;2022-10-17T13:44:53;10.15;;;6.60;;
72156;SDS011;60035;52.122;5.406;2022-10-17T13:47:23;12.13;;;5.78;;
72156;SDS011;60035;52.122;5.406;2022-10-17T13:49:53;12.73;;;6.45;;
72156;SDS011;60035;52.122;5.406;2022-10-17T13:52:22;10.07;;;5.68;;
72156;SDS011;60035;52.122;5.406;2022-10-17T13:54:52;11.98;;;6.15;;
72156;SDS011;60035;52.122;5.406;2022-10-17T13:57:24;12.45;;;6.70;;
72156;SDS011;60035;52.122;5.406;2022-10-17T13:59:58;13.98;;;6.63;;
72156;SDS011;60035;52.122;5.406;2022-10-17T14:02:28;11.38;;;5.88;;
72156;SDS011;60035;52.122;5.406;2022-10-17T14:07:52;10.02;;;5.43;;
72156;SDS011;60035;52.122;5.406;2022-10-17T14:13:05;11.90;;;5.43;;
72156;SDS011;60035;52.122;5.406;2022-10-17T14:15:35;13.00;;;5.72;;
72156;SDS011;60035;52.122;5.406;2022-10-17T14:18:06;11.10;;;5.05;;
72156;SDS011;60035;52.122;5.406;2022-10-17T14:20:34;10.13;;;5.28;;
72156;SDS011;60035;52.122;5.406;2022-10-17T14:23:38;10.45;;;6.03;;
72156;SDS011;60035;52.122;5.406;2022-10-17T14:26:11;11.52;;;5.40;;
72156;SDS011;60035;52.122;5.406;2022-10-17T14:28:44;10.27;;;5.90;;
72156;SDS011;60035;52.122;5.406;2022-10-17T14:31:20;10.00;;;5.15;;
72156;SDS011;60035;52.122;5.406;2022-10-17T14:33:51;12.98;;;6.82;;
72156;SDS011;60035;52.122;5.406;2022-10-17T14:36:19;14.80;;;6.07;;
72156;SDS011;60035;52.122;5.406;2022-10-17T14:38:55;12.20;;;6.28;;
72156;SDS011;60035;52.122;5.406;2022-10-17T14:41:23;10.43;;;5.47;;
72156;SDS011;60035;52.122;5.406;2022-10-17T14:44:13;9.07;;;5.88;;
72156;SDS011;60035;52.122;5.406;2022-10-17T14:46:44;10.15;;;5.68;;
72156;SDS011;60035;52.122;5.406;2022-10-17T14:49:18;9.80;;;5.18;;
72156;SDS011;60035;52.122;5.406;2022-10-17T14:54:44;11.07;;;5.70;;
72156;SDS011;60035;52.122;5.406;2022-10-17T14:57:25;10.02;;;4.38;;
72156;SDS011;60035;52.122;5.406;2022-10-17T14:59:54;9.68;;;5.82;;
72156;SDS011;60035;52.122;5.406;2022-10-17T15:02:22;10.90;;;5.43;;
72156;SDS011;60035;52.122;5.406;2022-10-17T15:04:50;11.55;;;5.30;;
72156;SDS011;60035;52.122;5.406;2022-10-17T15:07:16;10.85;;;6.10;;
72156;SDS011;60035;52.122;5.406;2022-10-17T15:09:44;10.10;;;4.60;;
72156;SDS011;60035;52.122;5.406;2022-10-17T15:12:15;11.77;;;5.95;;
72156;SDS011;60035;52.122;5.406;2022-10-17T15:14:44;10.88;;;5.75;;
72156;SDS011;60035;52.122;5.406;2022-10-17T15:17:14;11.90;;;5.72;;
72156;SDS011;60035;52.122;5.406;2022-10-17T15:19:46;12.23;;;4.72;;
72156;SDS011;60035;52.122;5.406;2022-10-17T15:22:13;9.90;;;4.53;;
72156;SDS011;60035;52.122;5.406;2022-10-17T15:24:41;9.52;;;4.70;;
72156;SDS011;60035;52.122;5.406;2022-10-17T15:27:13;11.93;;;5.00;;
72156;SDS011;60035;52.122;5.406;2022-10-17T15:29:41;10.48;;;4.53;;
72156;SDS011;60035;52.122;5.406;2022-10-17T15:32:08;13.60;;;5.40;;
72156;SDS011;60035;52.122;5.406;2022-10-17T15:34:34;10.75;;;5.63;;
72156;SDS011;60035;52.122;5.406;2022-10-17T15:37:01;9.93;;;5.28;;
72156;SDS011;60035;52.122;5.406;2022-10-17T15:39:30;8.73;;;5.45;;
72156;SDS011;60035;52.122;5.406;2022-10-17T15:41:56;9.30;;;4.45;;
72156;SDS011;60035;52.122;5.406;2022-10-17T15:44:23;10.55;;;5.32;;
72156;SDS011;60035;52.122;5.406;2022-10-17T15:46:50;10.77;;;5.15;;
72156;SDS011;60035;52.122;5.406;2022-10-17T15:49:17;11.02;;;4.72;;
72156;SDS011;60035;52.122;5.406;2022-10-17T15:51:44;10.75;;;5.57;;
72156;SDS011;60035;52.122;5.406;2022-10-17T15:54:14;12.27;;;5.25;;
72156;SDS011;60035;52.122;5.406;2022-10-17T15:56:40;10.05;;;5.50;;
72156;SDS011;60035;52.122;5.406;2022-10-17T15:59:13;11.57;;;5.70;;
72156;SDS011;60035;52.122;5.406;2022-10-17T16:01:42;9.65;;;5.55;;
72156;SDS011;60035;52.122;5.406;2022-10-17T16:04:10;10.70;;;5.43;;
72156;SDS011;60035;52.122;5.406;2022-10-17T16:06:40;11.48;;;4.70;;
72156;SDS011;60035;52.122;5.406;2022-10-17T16:09:08;11.05;;;6.00;;
72156;SDS011;60035;52.122;5.406;2022-10-17T16:11:35;13.15;;;6.20;;
72156;SDS011;60035;52.122;5.406;2022-10-17T16:14:05;10.65;;;5.03;;
72156;SDS011;60035;52.122;5.406;2022-10-17T16:19:01;10.30;;;5.57;;
72156;SDS011;60035;52.122;5.406;2022-10-17T16:21:28;11.50;;;5.72;;
72156;SDS011;60035;52.122;5.406;2022-10-17T16:23:57;12.48;;;6.72;;
72156;SDS011;60035;52.122;5.406;2022-10-17T16:26:25;9.82;;;5.65;;
72156;SDS011;60035;52.122;5.406;2022-10-17T16:28:53;12.27;;;5.10;;
72156;SDS011;60035;52.122;5.406;2022-10-17T16:31:27;11.80;;;5.30;;
72156;SDS011;60035;52.122;5.406;2022-10-17T16:33:56;11.23;;;5.60;;
72156;SDS011;60035;52.122;5.406;2022-10-17T16:36:24;9.30;;;5.00;;
72156;SDS011;60035;52.122;5.406;2022-10-17T16:38:51;13.90;;;6.35;;
72156;SDS011;60035;52.122;5.406;2022-10-17T16:43:52;10.85;;;6.07;;
72156;SDS011;60035;52.122;5.406;2022-10-17T16:46:20;11.30;;;5.30;;
72156;SDS011;60035;52.122;5.406;2022-10-17T16:48:48;12.05;;;5.28;;
72156;SDS011;60035;52.122;5.406;2022-10-17T16:51:15;10.80;;;5.03;;
72156;SDS011;60035;52.122;5.406;2022-10-17T16:53:44;11.15;;;5.43;;
72156;SDS011;60035;52.122;5.406;2022-10-17T16:56:12;9.88;;;4.93;;
72156;SDS011;60035;52.122;5.406;2022-10-17T16:58:41;10.25;;;4.72;;
72156;SDS011;60035;52.122;5.406;2022-10-17T17:01:10;11.80;;;5.32;;
72156;SDS011;60035;52.122;5.406;2022-10-17T17:03:40;12.32;;;5.03;;
72156;SDS011;60035;52.122;5.406;2022-10-17T17:06:08;10.60;;;5.32;;
72156;SDS011;60035;52.122;5.406;2022-10-17T17:08:38;11.70;;;6.00;;
72156;SDS011;60035;52.122;5.406;2022-10-17T17:11:05;13.45;;;6.40;;
72156;SDS011;60035;52.122;5.406;2022-10-17T17:13:33;11.23;;;5.20;;